createdAt,value
2022-10-18T00:01:34.352Z,40.33
2022-10-18T00:04:03.494Z,39.42
2022-10-18T00:06:32.652Z,39.00
2022-10-18T00:09:02.218Z,40.30
2022-10-18T00:11:31.764Z,39.60
2022-10-18T00:14:00.902Z,39.95
2022-10-18T00:16:30.137Z,42.38
2022-10-18T00:18:59.396Z,42.67
2022-10-18T00:21:28.905Z,42.63
2022-10-18T00:23:58.488Z,43.20
2022-10-18T00:26:30.054Z,45.05
2022-10-18T00:29:03.048Z,43.22
2022-10-18T00:34:06.422Z,53.47
2022-10-18T00:36:36.265Z,42.30
2022-10-18T00:39:07.781Z,42.90
2022-10-18T00:41:39.493Z,40.55
2022-10-18T00:44:28.721Z,41.38
2022-10-18T00:47:03.970Z,44.03
2022-10-18T00:49:38.280Z,42.78
2022-10-18T00:52:13.541Z,39.25
2022-10-18T00:54:45.995Z,39.92
2022-10-18T00:57:16.531Z,41.17
2022-10-18T00:59:47.061Z,40.97
2022-10-18T01:02:19.639Z,39.83
2022-10-18T01:04:49.259Z,38.60
2022-10-18T01:07:20.387Z,39.97
2022-10-18T01:10:09.826Z,39.30
2022-10-18T01:13:02.831Z,39.20
2022-10-18T01:15:39.516Z,37.58
2022-10-18T01:18:18.788Z,36.55
2022-10-18T01:20:57.910Z,37.75
2022-10-18T01:23:36.368Z,42.53
2022-10-18T01:26:29.438Z,41.05
2022-10-18T01:29:18.659Z,42.08
2022-10-18T01:31:58.914Z,38.15
2022-10-18T01:34:33.370Z,37.50
2022-10-18T01:37:06.892Z,35.60
2022-10-18T01:39:40.185Z,42.63
2022-10-18T01:42:22.385Z,32.80
2022-10-18T01:44:54.444Z,32.10
2022-10-18T01:47:24.953Z,33.17
2022-10-18T01:50:03.507Z,32.38
2022-10-18T01:52:33.024Z,32.97
2022-10-18T01:55:03.616Z,32.83
2022-10-18T01:57:46.598Z,32.58
2022-10-18T02:00:25.882Z,37.25
2022-10-18T02:03:03.791Z,32.42
2022-10-18T02:05:41.982Z,35.35
2022-10-18T02:08:23.734Z,32.35
2022-10-18T02:11:02.658Z,31.85
2022-10-18T02:13:37.864Z,32.65
2022-10-18T02:16:12.401Z,32.33
2022-10-18T02:18:47.092Z,35.38
2022-10-18T02:21:19.816Z,33.20
2022-10-18T02:23:50.574Z,47.90
2022-10-18T02:26:20.166Z,30.55
2022-10-18T02:28:49.741Z,29.60
2022-10-18T02:31:21.881Z,27.00
2022-10-18T02:34:20.693Z,33.97
2022-10-18T02:36:55.812Z,35.80
2022-10-18T02:39:34.211Z,29.45
2022-10-18T02:42:08.156Z,33.17
2022-10-18T02:44:40.657Z,34.63
2022-10-18T02:47:12.059Z,32.90
2022-10-18T02:49:41.829Z,26.73
2022-10-18T02:52:11.051Z,27.48
2022-10-18T02:54:40.468Z,25.90
2022-10-18T02:57:10.215Z,28.80
2022-10-18T02:59:39.313Z,25.80
2022-10-18T03:02:08.531Z,28.02
2022-10-18T03:04:37.769Z,29.83
2022-10-18T03:07:06.984Z,26.58
2022-10-18T03:09:36.298Z,25.60
2022-10-18T03:12:06.407Z,27.77
2022-10-18T03:14:35.906Z,27.00
2022-10-18T03:17:05.301Z,30.10
2022-10-18T03:19:34.699Z,26.45
2022-10-18T03:22:04.006Z,25.75
2022-10-18T03:24:33.914Z,29.73
2022-10-18T03:27:03.878Z,27.25
2022-10-18T03:29:33.076Z,27.90
2022-10-18T03:32:02.391Z,25.75
2022-10-18T03:34:31.678Z,25.92
2022-10-18T03:37:03.471Z,24.77
2022-10-18T03:39:34.652Z,27.02
2022-10-18T03:42:03.857Z,25.20
2022-10-18T03:44:34.081Z,24.77
2022-10-18T03:47:03.443Z,28.10
2022-10-18T03:52:02.746Z,22.00
2022-10-18T03:54:31.920Z,24.90
2022-10-18T03:57:02.362Z,26.13
2022-10-18T03:59:31.682Z,26.48
2022-10-18T04:02:03.803Z,25.27
2022-10-18T04:04:33.216Z,22.77
2022-10-18T04:07:02.497Z,24.52
2022-10-18T04:09:31.775Z,29.05
2022-10-18T04:12:01.043Z,25.17
2022-10-18T04:14:30.299Z,26.40
2022-10-18T04:16:59.646Z,28.92
2022-10-18T04:19:29.255Z,27.30
2022-10-18T04:21:59.021Z,27.48
2022-10-18T04:24:28.193Z,25.00
2022-10-18T04:26:57.529Z,24.15
2022-10-18T04:29:27.179Z,23.02
2022-10-18T04:31:56.403Z,22.80
2022-10-18T04:34:26.022Z,28.05
2022-10-18T04:36:56.868Z,22.55
2022-10-18T04:39:26.201Z,26.38
2022-10-18T04:41:55.406Z,23.38
2022-10-18T04:44:24.715Z,26.23
2022-10-18T04:46:54.019Z,27.00
2022-10-18T04:49:25.009Z,25.10
2022-10-18T04:51:54.327Z,26.85
2022-10-18T04:54:25.199Z,23.92
2022-10-18T04:56:57.281Z,22.27
2022-10-18T04:59:26.584Z,29.63
2022-10-18T05:01:55.909Z,26.65
2022-10-18T05:04:26.411Z,29.50
2022-10-18T05:06:55.628Z,23.80
2022-10-18T05:09:26.218Z,24.48
2022-10-18T05:11:55.444Z,24.20
2022-10-18T05:14:24.807Z,22.92
2022-10-18T05:16:54.026Z,22.13
2022-10-18T05:19:23.376Z,28.02
2022-10-18T05:21:52.732Z,26.58
2022-10-18T05:24:24.172Z,24.75
2022-10-18T05:26:56.288Z,22.90
2022-10-18T05:31:54.965Z,22.27
2022-10-18T05:34:24.312Z,22.35
2022-10-18T05:36:53.563Z,24.38
2022-10-18T05:39:22.905Z,25.20
2022-10-18T05:41:52.510Z,24.15
2022-10-18T05:44:21.994Z,21.25
2022-10-18T05:46:51.162Z,22.80
2022-10-18T05:49:20.724Z,24.05
2022-10-18T05:51:49.932Z,24.55
2022-10-18T05:54:19.596Z,21.63
2022-10-18T05:56:49.428Z,21.60
2022-10-18T05:59:19.931Z,25.52
2022-10-18T06:01:49.306Z,24.17
2022-10-18T06:04:19.398Z,25.95
2022-10-18T06:06:48.715Z,21.15
2022-10-18T06:09:18.166Z,28.75
2022-10-18T06:11:47.637Z,26.65
2022-10-18T06:14:17.158Z,22.55
2022-10-18T06:16:47.461Z,20.58
2022-10-18T06:19:16.701Z,24.25
2022-10-18T06:21:46.428Z,21.02
2022-10-18T06:24:15.704Z,23.23
2022-10-18T06:26:44.868Z,27.38
2022-10-18T06:29:14.811Z,23.35
2022-10-18T06:31:44.056Z,26.33
2022-10-18T06:34:13.325Z,23.55
2022-10-18T06:36:42.531Z,21.42
2022-10-18T06:39:12.891Z,26.00
2022-10-18T06:41:42.122Z,24.67
2022-10-18T06:44:15.934Z,23.23
2022-10-18T06:46:47.094Z,24.10
2022-10-18T06:49:19.204Z,26.23
2022-10-18T06:51:48.799Z,20.80
2022-10-18T06:54:18.968Z,20.60
2022-10-18T06:56:48.467Z,21.08
2022-10-18T06:59:21.612Z,20.33
2022-10-18T07:01:53.800Z,27.08
2022-10-18T07:04:23.310Z,22.58
2022-10-18T07:06:52.855Z,20.42
2022-10-18T07:09:33.198Z,21.83
2022-10-18T07:12:40.301Z,23.83
2022-10-18T07:14:52.712Z,24.52
2022-10-18T07:17:22.052Z,22.65
2022-10-18T07:19:51.548Z,21.05
2022-10-18T07:22:20.897Z,20.02
2022-10-18T07:24:50.134Z,21.10
2022-10-18T07:27:19.366Z,23.58
2022-10-18T07:29:50.220Z,23.65
2022-10-18T07:32:22.510Z,27.75
2022-10-18T07:34:54.267Z,21.05
2022-10-18T07:37:26.615Z,23.80
2022-10-18T07:39:58.719Z,24.20
2022-10-18T07:42:28.153Z,21.80
2022-10-18T07:45:00.012Z,25.40
2022-10-18T07:47:31.349Z,23.03
2022-10-18T07:50:04.006Z,27.30
2022-10-18T07:52:54.807Z,28.40
2022-10-18T07:55:24.053Z,31.08
2022-10-18T07:57:53.396Z,22.65
2022-10-18T08:00:26.437Z,27.13
2022-10-18T08:03:00.285Z,23.40
2022-10-18T08:08:08.015Z,26.50
2022-10-18T08:10:38.267Z,23.52
2022-10-18T08:13:07.656Z,23.02
2022-10-18T08:15:36.907Z,24.27
2022-10-18T08:18:06.265Z,22.77
2022-10-18T08:20:40.436Z,21.25
2022-10-18T08:23:10.411Z,21.42
2022-10-18T08:25:40.908Z,19.83
2022-10-18T08:28:10.243Z,22.73
2022-10-18T08:30:39.691Z,27.38
2022-10-18T08:33:09.395Z,22.83
2022-10-18T08:35:38.926Z,22.95
2022-10-18T08:38:17.979Z,21.95
2022-10-18T08:40:49.672Z,22.88
2022-10-18T08:43:30.082Z,29.50
2022-10-18T08:46:00.238Z,32.38
2022-10-18T08:48:47.428Z,26.95
2022-10-18T08:51:43.993Z,25.63
2022-10-18T08:54:24.154Z,23.05
2022-10-18T08:57:02.371Z,25.20
2022-10-18T08:59:39.866Z,28.83
2022-10-18T09:02:22.380Z,33.72
2022-10-18T09:04:52.518Z,26.37
2022-10-18T09:07:54.025Z,29.23
2022-10-18T09:10:35.381Z,21.83
2022-10-18T09:13:17.020Z,26.75
2022-10-18T09:15:53.317Z,21.10
2022-10-18T09:18:28.716Z,24.00
2022-10-18T09:21:01.135Z,25.00
2022-10-18T09:23:50.838Z,23.20
2022-10-18T09:26:23.438Z,27.17
2022-10-18T09:29:00.161Z,24.95
2022-10-18T09:31:51.643Z,29.65
2022-10-18T09:34:30.157Z,27.55
2022-10-18T09:37:00.632Z,24.60
2022-10-18T09:39:37.062Z,35.53
2022-10-18T09:42:15.028Z,33.42
2022-10-18T09:44:50.732Z,29.45
2022-10-18T09:47:22.824Z,42.72
2022-10-18T09:49:59.849Z,57.05
2022-10-18T09:52:43.003Z,39.25
2022-10-18T09:55:21.931Z,25.25
2022-10-18T09:57:58.046Z,31.95
2022-10-18T10:00:40.811Z,27.02
2022-10-18T10:03:16.560Z,38.80
2022-10-18T10:05:46.541Z,28.48
2022-10-18T10:08:15.838Z,32.03
2022-10-18T10:10:49.542Z,30.77
2022-10-18T10:13:26.191Z,33.00
2022-10-18T10:16:10.746Z,38.58
2022-10-18T10:18:41.828Z,26.48
2022-10-18T10:21:17.447Z,27.25
2022-10-18T10:23:57.417Z,33.28
2022-10-18T10:26:40.133Z,31.58
2022-10-18T10:29:48.634Z,32.58
2022-10-18T10:32:20.549Z,31.20
2022-10-18T10:34:49.928Z,34.63
2022-10-18T10:37:27.615Z,34.63
2022-10-18T10:40:21.957Z,33.50
2022-10-18T10:43:19.600Z,31.27
2022-10-18T10:46:03.030Z,31.88
2022-10-18T10:48:36.383Z,32.42
2022-10-18T10:51:09.569Z,32.55
2022-10-18T10:53:43.164Z,31.02
2022-10-18T10:56:22.974Z,42.03
2022-10-18T10:58:53.660Z,31.92
2022-10-18T11:01:29.845Z,31.80
2022-10-18T11:04:03.216Z,27.77
2022-10-18T11:06:38.559Z,29.20
2022-10-18T11:09:29.326Z,37.13
2022-10-18T11:12:06.891Z,33.42
2022-10-18T11:14:46.344Z,28.75
2022-10-18T11:17:23.663Z,38.40
2022-10-18T11:20:15.200Z,40.33
2022-10-18T11:22:58.408Z,36.35
2022-10-18T11:25:40.922Z,37.95
2022-10-18T11:28:23.435Z,36.97
2022-10-18T11:31:09.633Z,40.08
2022-10-18T11:34:17.687Z,36.80
2022-10-18T11:37:23.044Z,40.67
2022-10-18T11:39:58.516Z,38.45
2022-10-18T11:42:40.207Z,40.50
2022-10-18T11:45:48.914Z,37.17
2022-10-18T11:48:20.147Z,32.97
2022-10-18T11:51:12.924Z,38.00
2022-10-18T11:53:52.536Z,33.15
2022-10-18T11:56:36.087Z,38.15
2022-10-18T11:59:16.165Z,33.47
2022-10-18T12:01:59.113Z,37.78
2022-10-18T12:04:40.957Z,35.28
2022-10-18T12:07:26.798Z,36.10
2022-10-18T12:09:59.358Z,38.67
2022-10-18T12:12:35.191Z,39.58
2022-10-18T12:15:15.269Z,39.50
2022-10-18T12:17:50.316Z,32.92
2022-10-18T12:20:41.882Z,37.50
2022-10-18T12:23:16.677Z,32.70
2022-10-18T12:25:51.161Z,35.95
2022-10-18T12:28:45.896Z,35.97
2022-10-18T12:31:28.319Z,38.10
2022-10-18T12:34:00.924Z,37.63
2022-10-18T12:36:50.276Z,35.85
2022-10-18T12:39:43.501Z,36.58
2022-10-18T12:42:27.969Z,35.22
2022-10-18T12:45:26.264Z,38.38
2022-10-18T12:47:57.398Z,34.50
2022-10-18T12:50:27.689Z,38.30
2022-10-18T12:53:09.040Z,38.13
2022-10-18T12:58:17.618Z,36.75
2022-10-18T13:00:48.922Z,38.70
2022-10-18T13:03:20.179Z,34.17
2022-10-18T13:05:54.993Z,33.67
2022-10-18T13:08:30.683Z,39.67
2022-10-18T13:11:29.270Z,38.90
2022-10-18T13:14:19.675Z,37.85
2022-10-18T13:17:16.660Z,35.38
2022-10-18T13:20:24.553Z,36.67
2022-10-18T13:23:02.832Z,37.17
2022-10-18T13:26:11.404Z,36.95
2022-10-18T13:28:45.424Z,35.17
2022-10-18T13:31:46.300Z,37.60
2022-10-18T13:34:36.558Z,37.50
2022-10-18T13:37:06.887Z,36.70
2022-10-18T13:39:36.371Z,35.47
2022-10-18T13:42:06.500Z,35.75
2022-10-18T13:44:39.376Z,38.38
2022-10-18T13:49:42.564Z,39.55
2022-10-18T13:52:48.308Z,42.55
2022-10-18T13:55:37.848Z,36.25
2022-10-18T13:58:26.360Z,38.95
2022-10-18T14:01:03.626Z,41.20
2022-10-18T14:03:58.545Z,36.85
2022-10-18T14:06:34.429Z,38.55
2022-10-18T14:09:40.257Z,40.85
2022-10-18T14:12:24.826Z,42.10
2022-10-18T14:15:33.549Z,38.47
2022-10-18T14:18:27.074Z,38.10
2022-10-18T14:21:18.811Z,41.20
2022-10-18T14:23:52.346Z,44.65
2022-10-18T14:26:24.236Z,41.78
2022-10-18T14:29:17.797Z,40.55
2022-10-18T14:31:55.828Z,41.90
2022-10-18T14:34:25.122Z,42.33
2022-10-18T14:36:54.500Z,40.05
2022-10-18T14:39:29.597Z,38.83
2022-10-18T14:41:59.983Z,39.70
2022-10-18T14:44:31.426Z,40.35
2022-10-18T14:47:05.110Z,39.92
2022-10-18T14:49:34.383Z,40.40
2022-10-18T14:52:03.802Z,44.85
2022-10-18T14:54:39.509Z,44.03
2022-10-18T14:57:09.578Z,42.78
2022-10-18T14:59:53.872Z,44.28
2022-10-18T15:02:26.498Z,40.80
2022-10-18T15:04:59.676Z,44.50
2022-10-18T15:07:31.085Z,42.65
2022-10-18T15:10:02.971Z,46.08
2022-10-18T15:12:37.040Z,64.40
2022-10-18T15:15:23.643Z,53.63
2022-10-18T15:17:54.004Z,49.53
2022-10-18T15:20:32.829Z,45.03
2022-10-18T15:23:30.982Z,40.92
2022-10-18T15:26:07.191Z,46.20
2022-10-18T15:28:42.379Z,44.70
2022-10-18T15:31:25.481Z,45.90
2022-10-18T15:36:30.985Z,42.90
2022-10-18T15:39:21.536Z,41.33
2022-10-18T15:41:54.578Z,40.53
2022-10-18T15:44:31.178Z,42.33
2022-10-18T15:47:22.322Z,39.00
2022-10-18T15:49:56.797Z,38.15
2022-10-18T15:52:36.648Z,40.45
2022-10-18T15:55:35.568Z,38.28
2022-10-18T15:58:06.883Z,39.78
2022-10-18T16:00:37.066Z,37.90
2022-10-18T16:03:08.854Z,38.80
2022-10-18T16:05:39.484Z,35.92
2022-10-18T16:08:08.793Z,34.95
2022-10-18T16:10:39.438Z,41.28
2022-10-18T16:13:08.612Z,41.45
2022-10-18T16:15:37.831Z,36.25
2022-10-18T16:18:07.087Z,35.83
2022-10-18T16:20:36.386Z,41.55
2022-10-18T16:23:10.570Z,38.85
2022-10-18T16:25:39.787Z,35.58
2022-10-18T16:28:18.300Z,36.78
2022-10-18T16:30:55.238Z,34.55
2022-10-18T16:33:24.624Z,40.72
2022-10-18T16:35:54.342Z,36.47
2022-10-18T16:38:42.383Z,37.97
2022-10-18T16:41:12.614Z,34.22
2022-10-18T16:43:42.003Z,37.92
2022-10-18T16:46:17.040Z,33.22
2022-10-18T16:48:47.322Z,37.92
2022-10-18T16:51:16.867Z,36.70
2022-10-18T16:53:46.192Z,39.75
2022-10-18T16:56:18.461Z,40.17
2022-10-18T16:58:48.395Z,39.53
2022-10-18T17:01:20.283Z,36.67
2022-10-18T17:03:50.224Z,33.07
2022-10-18T17:06:21.311Z,31.42
2022-10-18T17:08:51.383Z,33.90
2022-10-18T17:11:21.781Z,33.97
2022-10-18T17:13:51.023Z,33.33
2022-10-18T17:16:38.318Z,33.50
2022-10-18T17:19:09.672Z,34.42
2022-10-18T17:21:39.246Z,35.13
2022-10-18T17:24:08.481Z,35.92
2022-10-18T17:26:37.644Z,34.10
2022-10-18T17:29:09.727Z,34.50
2022-10-18T17:31:38.961Z,34.65
2022-10-18T17:34:08.184Z,35.92
2022-10-18T17:36:37.418Z,37.13
2022-10-18T17:39:07.042Z,37.40
2022-10-18T17:41:36.220Z,34.85
2022-10-18T17:44:06.864Z,36.40
2022-10-18T17:46:36.150Z,34.83
2022-10-18T17:49:05.365Z,32.70
2022-10-18T17:51:34.605Z,36.08
2022-10-18T17:54:04.976Z,32.60
2022-10-18T17:56:36.262Z,38.60
2022-10-18T17:59:05.441Z,38.28
2022-10-18T18:01:34.678Z,35.35
2022-10-18T18:04:05.139Z,35.40
2022-10-18T18:06:37.369Z,33.75
2022-10-18T18:09:11.141Z,35.10
2022-10-18T18:11:43.415Z,37.42
2022-10-18T18:14:13.646Z,36.45
2022-10-18T18:16:45.017Z,38.03
2022-10-18T18:19:15.523Z,35.92
2022-10-18T18:21:45.043Z,33.67
2022-10-18T18:24:15.466Z,33.00
2022-10-18T18:26:45.131Z,35.97
2022-10-18T18:29:14.878Z,38.95
2022-10-18T18:31:45.333Z,35.90
2022-10-18T18:34:14.930Z,35.60
2022-10-18T18:36:44.590Z,36.90
2022-10-18T18:39:22.112Z,39.50
2022-10-18T18:41:53.027Z,34.72
2022-10-18T18:44:23.057Z,34.65
2022-10-18T18:46:52.178Z,35.20
2022-10-18T18:49:21.544Z,35.72
2022-10-18T18:51:51.117Z,37.83
2022-10-18T18:54:20.447Z,35.55
2022-10-18T18:56:49.766Z,37.30
2022-10-18T18:59:21.489Z,36.28
2022-10-18T19:01:50.803Z,36.15
2022-10-18T19:04:20.025Z,35.97
2022-10-18T19:06:49.408Z,38.88
2022-10-18T19:09:23.217Z,39.35
2022-10-18T19:11:55.126Z,35.22
2022-10-18T19:14:26.047Z,37.40
2022-10-18T19:16:58.950Z,34.63
2022-10-18T19:19:30.688Z,35.88
2022-10-18T19:22:02.333Z,35.58
2022-10-18T19:24:33.442Z,39.25
2022-10-18T19:27:06.937Z,37.92
2022-10-18T19:29:38.772Z,37.85
2022-10-18T19:32:13.246Z,37.63
2022-10-18T19:34:42.911Z,37.90
2022-10-18T19:37:15.474Z,36.97
2022-10-18T19:39:45.075Z,39.05
2022-10-18T19:42:19.179Z,37.45
2022-10-18T19:44:51.978Z,38.97
2022-10-18T19:47:21.874Z,37.30
2022-10-18T19:49:51.178Z,37.22
2022-10-18T19:52:20.329Z,38.55
2022-10-18T19:54:51.831Z,38.75
2022-10-18T19:57:20.987Z,37.67
2022-10-18T19:59:50.231Z,38.83
2022-10-18T20:02:20.404Z,39.58
2022-10-18T20:04:49.639Z,37.88
2022-10-18T20:07:18.820Z,38.85
2022-10-18T20:09:49.805Z,39.03
2022-10-18T20:12:18.946Z,37.40
2022-10-18T20:14:48.214Z,37.38
2022-10-18T20:17:17.485Z,37.97
2022-10-18T20:19:46.665Z,40.88
2022-10-18T20:22:15.925Z,39.05
2022-10-18T20:24:45.487Z,38.10
2022-10-18T20:27:14.592Z,37.30
2022-10-18T20:29:43.759Z,40.50
2022-10-18T20:32:13.059Z,38.78
2022-10-18T20:34:42.355Z,39.10
2022-10-18T20:37:11.513Z,38.00
2022-10-18T20:39:41.888Z,40.67
2022-10-18T20:42:11.025Z,36.63
2022-10-18T20:44:44.565Z,38.65
2022-10-18T20:47:13.759Z,41.03
2022-10-18T20:49:42.954Z,39.88
2022-10-18T20:52:12.217Z,39.03
2022-10-18T20:54:41.438Z,38.53
2022-10-18T20:57:10.640Z,41.20
2022-10-18T20:59:39.759Z,40.85
2022-10-18T21:02:09.273Z,40.03
2022-10-18T21:04:41.405Z,38.70
2022-10-18T21:07:11.589Z,39.08
2022-10-18T21:09:40.746Z,37.90
2022-10-18T21:14:43.829Z,38.35
2022-10-18T21:17:13.041Z,44.03
2022-10-18T21:19:42.256Z,40.17
2022-10-18T21:22:11.502Z,39.15
2022-10-18T21:24:40.672Z,39.30
2022-10-18T21:27:09.841Z,39.03
2022-10-18T21:29:39.105Z,40.95
2022-10-18T21:32:08.278Z,41.20
2022-10-18T21:34:37.473Z,42.72
2022-10-18T21:37:06.746Z,41.90
2022-10-18T21:39:36.744Z,38.78
2022-10-18T21:42:06.130Z,40.15
2022-10-18T21:44:35.412Z,40.00
2022-10-18T21:47:04.594Z,39.72
2022-10-18T21:49:36.545Z,40.20
2022-10-18T21:52:06.744Z,42.60
2022-10-18T21:54:36.011Z,40.45
2022-10-18T21:57:05.185Z,43.70
2022-10-18T21:59:37.201Z,44.47
2022-10-18T22:02:06.706Z,41.95
2022-10-18T22:04:37.187Z,42.58
2022-10-18T22:07:06.654Z,42.38
2022-10-18T22:09:35.927Z,45.15
2022-10-18T22:12:08.298Z,42.65
2022-10-18T22:14:39.599Z,42.72
2022-10-18T22:17:08.828Z,44.05
2022-10-18T22:19:38.117Z,41.72
2022-10-18T22:22:07.265Z,44.00
2022-10-18T22:27:05.376Z,44.00
2022-10-18T22:29:34.952Z,41.17
2022-10-18T22:32:04.121Z,46.05
2022-10-18T22:34:33.289Z,46.17
2022-10-18T22:37:02.478Z,44.72
2022-10-18T22:39:31.661Z,47.75
2022-10-18T22:42:00.826Z,50.75
2022-10-18T22:44:31.011Z,46.17
2022-10-18T22:47:00.162Z,45.10
2022-10-18T22:49:29.537Z,47.25
2022-10-18T22:51:58.692Z,46.90
2022-10-18T22:54:28.813Z,43.58
2022-10-18T22:56:58.022Z,75.40
2022-10-18T22:59:27.278Z,64.57
2022-10-18T23:01:57.538Z,55.13
2022-10-18T23:04:26.736Z,46.28
2022-10-18T23:06:55.949Z,47.70
2022-10-18T23:09:25.149Z,49.22
2022-10-18T23:11:54.808Z,49.00
2022-10-18T23:14:23.946Z,48.10
2022-10-18T23:16:53.204Z,47.97
2022-10-18T23:19:22.387Z,50.45
2022-10-18T23:21:51.550Z,48.10
2022-10-18T23:24:20.749Z,48.75
2022-10-18T23:26:49.984Z,49.45
2022-10-18T23:29:19.298Z,48.13
2022-10-18T23:31:48.531Z,48.70
2022-10-18T23:34:17.763Z,52.53
2022-10-18T23:36:47.300Z,51.90
2022-10-18T23:39:16.503Z,50.55
2022-10-18T23:41:45.657Z,50.70
2022-10-18T23:44:15.016Z,51.20
2022-10-18T23:46:44.203Z,50.50
2022-10-18T23:49:13.377Z,53.75
2022-10-18T23:51:42.566Z,52.17
2022-10-18T23:54:11.788Z,53.50
2022-10-18T23:56:40.955Z,52.45
2022-10-18T23:59:10.171Z,56.42
